This is the latest recevied weather packets stored in our database for station/object OE3MHU-12. If no packets are shown the sender has not sent any weather packets the latest 10 day(s).
| Time | Temp. | Humidity | Pressure | Rain* | Wind** | Luminosity | Snow |
|---|---|---|---|---|---|---|---|
| 1777031783 | 19.44° C | 32% | 1016.1 hPa | 0 mm | - | - | - |
| 1777029983 | 18.89° C | 35% | 1016.4 hPa | 0 mm | - | - | - |
| 1777028183 | 18.33° C | 33% | 1016.7 hPa | 0 mm | - | - | - |
| 1777026384 | 17.78° C | 38% | 1017.2 hPa | 0 mm | - | - | - |
| 1777024584 | 17.22° C | 41% | 1017.5 hPa | 0 mm | - | - | - |
| 1777022784 | 16.11° C | 44% | 1017.8 hPa | 0 mm | - | - | - |
| 1777020984 | 15° C | 49% | 1018 hPa | 0 mm | - | - | - |
| 1777019184 | 14.44° C | 51% | 1018.2 hPa | 0 mm | - | - | - |
| 1777017384 | 13.89° C | 55% | 1018.2 hPa | 0 mm | - | - | - |
| 1777015584 | 12.78° C | 60% | 1018.5 hPa | 0 mm | - | - | - |
| 1777013784 | 12.78° C | 57% | 1018.6 hPa | 0 mm | - | - | - |
| 1777011984 | 11.11° C | 59% | 1018.8 hPa | 0 mm | - | - | - |
| 1777010184 | 9.44° C | 63% | 1019 hPa | 0 mm | - | - | - |
| 1777006586 | 3.33° C | 74% | 1019.1 hPa | 0 mm | - | - | - |
| 1777004785 | 3.33° C | 72% | 1019.1 hPa | 0 mm | - | - | - |
| 1777002985 | 3.89° C | 71% | 1019.2 hPa | 0 mm | - | - | - |
| 1777001185 | 4.44° C | 70% | 1019.5 hPa | 0 mm | - | - | - |
| 1776999385 | 4.44° C | 69% | 1019.6 hPa | 0 mm | - | - | - |
| 1776997585 | 4.44° C | 68% | 1019.7 hPa | 0 mm | - | - | - |
| 1776995785 | 4.44° C | 67% | 1019.9 hPa | 0 mm | - | - | - |
| 1776993985 | 4.44° C | 67% | 1019.9 hPa | 0 mm | - | - | - |
| 1776992185 | 3.89° C | 67% | 1020.1 hPa | 0 mm | - | - | - |
| 1776990385 | 4.44° C | 66% | 1020.1 hPa | 0 mm | - | - | - |
| 1776988585 | 4.44° C | 64% | 1020.2 hPa | 0 mm | - | - | - |
| 1776986785 | 5.56° C | 61% | 1020.2 hPa | 0 mm | - | - | - |
* Rain latest hour (hover to see other rain measurements)
** Current wind speed in m/s (hover to see current wind gust speed)